Time;durP1;ratioP1;P1;durP2;ratioP2;P2;SDS_P1;SDS_P2;PMS_P1;PMS_P2;Temp;Humidity;BMP_temperature;BMP_pressure;BME280_temperature;BME280_humidity;BME280_pressure;Samples;Min_cycle;Max_cycle;Signal;HPM_P1;HPM_P2
2024/02/19 00:02:16;;;;;;;42.53;24.42;;;;;;;4.51;74.31;100572.44;4980165;28;20047;-96
2024/02/19 00:04:41;;;;;;;42.83;23.77;;;;;;;4.46;74.01;100577.53;4932223;28;20037;-93
2024/02/19 00:07:07;;;;;;;45.25;25.33;;;;;;;4.45;74.07;100584.69;4931744;28;20042;-96
2024/02/19 00:09:36;;;;;;;46.65;24.77;;;;;;;4.45;74.17;100576.69;4931660;28;20110;-96
2024/02/19 00:12:04;;;;;;;42.78;24.90;;;;;;;4.51;73.72;100568.94;4932133;28;20106;-96
2024/02/19 00:14:30;;;;;;;37.13;22.08;;;;;;;4.52;74.16;100560.72;4932602;28;20035;-96
2024/02/19 00:16:58;;;;;;;43.40;21.85;;;;;;;4.73;74.36;100586.47;4931885;28;20470;-96
2024/02/19 00:19:23;;;;;;;47.15;25.42;;;;;;;4.56;74.08;100580.63;4931288;28;20047;-96
2024/02/19 00:21:52;;;;;;;45.65;24.48;;;;;;;4.39;73.58;100566.81;4932280;28;20026;-96
2024/02/19 00:24:20;;;;;;;44.78;24.45;;;;;;;4.34;74.48;100584.47;4932664;28;20054;-95
2024/02/19 00:26:46;;;;;;;41.90;22.20;;;;;;;4.17;73.67;100579.44;4931456;28;20015;-96
2024/02/19 00:29:12;;;;;;;43.15;22.30;;;;;;;4.27;73.34;100596.91;4931457;28;20476;-96
2024/02/19 00:31:37;;;;;;;40.10;22.40;;;;;;;4.00;73.96;100578.91;4932387;28;20062;-96
2024/02/19 00:34:03;;;;;;;43.85;23.95;;;;;;;4.03;73.91;100602.53;4931684;28;20030;-96
2024/02/19 00:36:29;;;;;;;40.13;22.23;;;;;;;3.91;73.37;100569.44;4930436;28;20038;-95
2024/02/19 00:38:54;;;;;;;40.80;23.73;;;;;;;3.97;73.69;100591.81;4931183;28;20026;-95
2024/02/19 00:41:21;;;;;;;43.13;23.58;;;;;;;3.96;73.97;100600.81;4931358;28;20133;-96
2024/02/19 00:43:47;;;;;;;38.63;22.33;;;;;;;3.83;74.35;100574.91;4931305;28;20042;-96
2024/02/19 00:46:12;;;;;;;37.13;22.23;;;;;;;3.88;74.31;100571.66;4931022;28;20037;-96
2024/02/19 00:48:38;;;;;;;40.03;21.70;;;;;;;3.89;74.29;100573.31;4930620;28;20031;-96
2024/02/19 00:51:06;;;;;;;42.20;21.88;;;;;;;4.00;73.98;100576.25;4931969;28;20027;-96
2024/02/19 00:53:35;;;;;;;34.30;21.25;;;;;;;4.05;73.74;100541.03;4932102;28;20059;-96
2024/02/19 00:56:00;;;;;;;37.88;21.77;;;;;;;4.15;73.87;100541.50;4932083;28;20038;-96
2024/02/19 00:58:29;;;;;;;35.80;20.55;;;;;;;4.36;73.36;100563.75;4929303;28;20038;-96
2024/02/19 01:00:55;;;;;;;29.67;18.90;;;;;;;4.26;73.92;100540.13;4931088;28;20089;-96
2024/02/19 01:03:21;;;;;;;31.48;18.20;;;;;;;4.40;73.57;100556.97;4931132;28;20122;-96
2024/02/19 01:05:46;;;;;;;33.47;19.92;;;;;;;4.37;73.51;100541.38;4930829;28;20496;-96
2024/02/19 01:08:12;;;;;;;34.90;20.13;;;;;;;4.27;73.72;100519.59;4930228;28;20035;-96
2024/02/19 01:10:37;;;;;;;34.70;20.33;;;;;;;4.35;73.80;100530.09;4931026;28;20050;-96
2024/02/19 01:13:03;;;;;;;36.80;20.25;;;;;;;4.50;73.67;100545.94;4930526;28;20572;-96
2024/02/19 01:15:29;;;;;;;33.83;18.98;;;;;;;4.46;73.79;100526.84;4930909;28;20058;-96
2024/02/19 01:17:56;;;;;;;37.05;19.73;;;;;;;4.66;74.61;100546.41;4929670;28;20041;-96
2024/02/19 01:20:21;;;;;;;39.53;20.58;;;;;;;4.76;73.91;100551.38;4931182;28;20023;-96
2024/02/19 01:22:48;;;;;;;40.15;19.33;;;;;;;4.49;73.48;100534.47;4930126;28;20027;-96
2024/02/19 01:25:19;;;;;;;34.20;20.05;;;;;;;4.46;73.31;100529.50;4961814;28;20035;-96
2024/02/19 01:27:45;;;;;;;42.03;22.23;;;;;;;4.48;72.84;100535.47;4930057;28;20097;-96
2024/02/19 01:30:11;;;;;;;35.40;20.13;;;;;;;4.43;73.40;100508.59;4929274;28;20030;-96
2024/02/19 01:32:39;;;;;;;34.15;21.23;;;;;;;4.58;73.60;100524.44;4929524;28;20421;-96
2024/02/19 01:35:08;;;;;;;39.60;21.17;;;;;;;4.64;73.05;100532.44;4930888;28;20023;-95
2024/02/19 01:37:36;;;;;;;32.65;19.88;;;;;;;4.56;72.05;100532.63;4930237;28;20417;-95
2024/02/19 01:40:08;;;;;;;37.15;20.35;;;;;;;4.34;72.38;100502.63;4929532;28;20496;-96
2024/02/19 01:42:35;;;;;;;35.97;20.60;;;;;;;4.31;72.47;100507.53;4931437;28;20035;-96
2024/02/19 01:45:05;;;;;;;38.90;21.23;;;;;;;4.28;72.32;100499.94;4930523;28;20039;-96
2024/02/19 01:47:31;;;;;;;33.25;19.83;;;;;;;4.31;72.28;100496.84;4932064;28;20023;-96
2024/02/19 01:49:59;;;;;;;34.80;21.25;;;;;;;4.36;72.33;100513.09;4930072;28;20084;-96
2024/02/19 01:52:25;;;;;;;40.72;20.73;;;;;;;4.37;72.83;100499.53;4929754;28;20022;-96
2024/02/19 01:54:51;;;;;;;44.25;22.65;;;;;;;4.40;71.86;100507.16;4929296;28;20041;-96
2024/02/19 01:57:17;;;;;;;41.45;20.80;;;;;;;4.38;72.71;100503.03;4931018;28;20034;-96
2024/02/19 01:59:42;;;;;;;40.40;21.67;;;;;;;4.27;73.35;100500.94;4930136;28;20023;-96
2024/02/19 02:02:11;;;;;;;38.22;20.52;;;;;;;4.22;73.13;100509.53;4930109;28;20043;-96
2024/02/19 02:04:36;;;;;;;34.40;18.63;;;;;;;4.12;73.92;100496.56;4930616;28;20077;-96
2024/02/19 02:07:03;;;;;;;32.53;19.92;;;;;;;4.05;73.59;100480.56;4931129;28;20039;-95
2024/02/19 02:09:29;;;;;;;34.92;21.08;;;;;;;3.97;73.46;100501.22;4930243;28;20034;-96
2024/02/19 02:12:01;;;;;;;33.03;19.33;;;;;;;3.87;73.64;100482.13;4928413;28;20038;-96
2024/02/19 02:14:27;;;;;;;35.17;19.92;;;;;;;3.89;73.80;100485.41;4945812;28;20042;-96
2024/02/19 02:16:52;;;;;;;33.85;19.73;;;;;;;3.87;73.27;100490.09;4930326;28;20445;-96
2024/02/19 02:19:18;;;;;;;34.42;19.75;;;;;;;3.81;73.81;100481.88;4929877;28;20038;-96
2024/02/19 02:21:44;;;;;;;35.55;20.50;;;;;;;3.81;73.59;100478.38;4929558;28;20031;-96
2024/02/19 02:24:10;;;;;;;35.95;19.73;;;;;;;3.84;73.81;100484.16;4930034;28;20027;-96
2024/02/19 02:26:39;;;;;;;45.42;20.35;;;;;;;3.84;72.95;100494.81;4930112;28;20026;-96
2024/02/19 02:29:05;;;;;;;33.72;20.15;;;;;;;3.71;73.26;100478.72;4930443;28;20500;-96
2024/02/19 02:31:32;;;;;;;43.33;22.52;;;;;;;3.59;73.97;100482.94;4928272;28;20042;-96
2024/02/19 02:33:59;;;;;;;40.80;21.75;;;;;;;3.52;74.48;100490.09;4930373;28;20027;-96
2024/02/19 02:36:29;;;;;;;33.90;20.30;;;;;;;3.56;73.55;100470.03;4930656;28;20030;-96
2024/02/19 02:38:55;;;;;;;34.33;21.45;;;;;;;3.70;73.72;100492.25;4930817;28;20034;-96
2024/02/19 02:41:21;;;;;;;33.15;19.73;;;;;;;3.56;73.86;100470.03;4929244;28;20060;-96
2024/02/19 02:43:46;;;;;;;37.55;20.98;;;;;;;3.54;74.05;100472.09;4929044;28;20122;-96
2024/02/19 02:46:12;;;;;;;33.33;20.17;;;;;;;3.52;74.80;100488.25;4929863;28;20105;-96
2024/02/19 04:32:26;;;;;;;33.33;19.17;;;;;;;4.18;73.62;100461.13;5368751;23;20047;-96
2024/02/19 04:52:02;;;;;;;30.30;19.00;;;;;;;3.61;74.02;100428.50;5994999;23;20022;-95
2024/02/19 05:08:44;;;;;;;40.50;20.58;;;;;;;3.58;74.37;100423.56;5320822;23;20058;-96
2024/02/19 05:11:14;;;;;;;46.97;21.75;;;;;;;3.64;74.28;100436.09;4967245;28;20046;-96
2024/02/19 05:13:42;;;;;;;39.50;21.10;;;;;;;3.89;73.32;100451.59;4966457;28;20416;-95
2024/02/19 05:16:12;;;;;;;35.35;21.40;;;;;;;3.74;73.71;100438.41;4983642;28;20105;-95
2024/02/19 05:18:41;;;;;;;35.35;21.45;;;;;;;3.72;73.25;100424.47;4967616;28;20406;-95
2024/02/19 05:21:10;;;;;;;34.90;20.63;;;;;;;3.87;73.27;100415.50;4966745;28;20058;-96
2024/02/19 05:23:50;;;;;;;37.65;21.30;;;;;;;3.77;73.77;100414.03;4956049;28;20062;-96
2024/02/19 05:26:25;;;;;;;39.38;20.77;;;;;;;4.12;72.84;100461.94;4969044;28;20130;-96
2024/02/19 05:28:56;;;;;;;31.92;20.40;;;;;;;4.07;73.43;100434.22;4983429;28;20094;-95
2024/02/19 05:31:35;;;;;;;40.92;21.48;;;;;;;4.07;73.19;100424.41;4997038;28;20039;-95
2024/02/19 05:34:02;;;;;;;39.47;20.48;;;;;;;4.15;72.74;100431.38;4983745;28;20061;-94
2024/02/19 05:36:51;;;;;;;38.55;21.75;;;;;;;4.18;71.69;100426.47;5002837;28;20034;-96
2024/02/19 05:39:16;;;;;;;59.65;32.47;;;;;;;4.23;72.30;100436.53;4972385;28;20070;-95
2024/02/19 05:41:46;;;;;;;50.08;24.73;;;;;;;4.25;72.71;100426.50;4990410;28;20142;-96
2024/02/19 05:44:12;;;;;;;45.95;24.45;;;;;;;4.19;72.65;100437.94;4988630;28;20053;-96
2024/02/19 05:46:41;;;;;;;41.38;23.88;;;;;;;4.35;72.49;100431.44;4972993;28;20038;-96
2024/02/19 05:49:09;;;;;;;41.45;23.27;;;;;;;4.50;71.47;100431.28;4970011;28;20062;-96
2024/02/19 05:51:36;;;;;;;42.88;24.00;;;;;;;4.52;72.01;100419.38;4976006;28;20064;-96
2024/02/19 05:54:07;;;;;;;44.78;24.33;;;;;;;4.54;72.04;100422.66;4972857;28;20030;-96
2024/02/19 05:57:03;;;;;;;46.97;23.42;;;;;;;4.68;71.50;100423.50;5006525;28;20109;-96
2024/02/19 05:59:40;;;;;;;43.58;23.08;;;;;;;4.71;71.21;100423.13;4977375;28;20030;-96
2024/02/19 06:02:16;;;;;;;43.55;23.90;;;;;;;4.69;71.25;100413.66;4960377;28;20042;-95
2024/02/19 06:04:47;;;;;;;55.40;24.60;;;;;;;4.71;70.95;100420.44;4983703;28;20495;-95
2024/02/19 06:07:22;;;;;;;53.50;25.37;;;;;;;4.71;70.76;100427.59;4966571;28;20026;-95
2024/02/19 06:09:53;;;;;;;49.75;25.15;;;;;;;4.78;70.88;100437.28;4982943;28;20281;-96
2024/02/19 06:12:24;;;;;;;47.65;26.45;;;;;;;4.68;70.84;100428.03;4967744;28;20057;-96
2024/02/19 06:15:57;;;;;;;;;;;;;;;;;;;;;
2024/02/19 06:19:01;;;;;;;46.13;25.25;;;;;;;5.09;70.38;100461.72;5027329;23;20145;-96
2024/02/19 06:21:27;;;;;;;138.52;28.02;;;;;;;5.04;71.19;100444.47;4967828;28;20485;-95
2024/02/19 06:23:53;;;;;;;41.10;24.23;;;;;;;5.23;70.80;100448.16;4966827;28;20053;-94
2024/02/19 06:26:18;;;;;;;48.97;26.30;;;;;;;5.13;70.66;100436.25;4965903;28;20034;-96
2024/02/19 06:28:51;;;;;;;52.28;28.15;;;;;;;5.17;69.83;100430.28;4968621;28;20030;-95
2024/02/19 06:31:27;;;;;;;90.78;29.83;;;;;;;5.12;70.14;100429.25;4971057;28;20037;-96
2024/02/19 06:33:56;;;;;;;51.42;26.00;;;;;;;5.23;70.24;100450.84;4973019;28;20026;-95
2024/02/19 06:36:22;;;;;;;49.53;25.95;;;;;;;5.11;70.24;100435.66;4967478;28;20057;-95
2024/02/19 06:38:47;;;;;;;45.45;24.25;;;;;;;5.14;70.43;100437.88;5109296;23;20083;-94
2024/02/19 06:41:21;;;;;;;42.97;24.90;;;;;;;5.04;70.70;100425.78;4949406;28;20035;-96
2024/02/19 06:43:56;;;;;;;52.20;24.75;;;;;;;5.24;69.82;100451.66;4936081;28;20030;-94
2024/02/19 06:46:22;;;;;;;46.42;24.95;;;;;;;5.18;70.15;100428.44;4936502;28;20027;-93
2024/02/19 06:48:59;;;;;;;44.17;25.08;;;;;;;5.29;69.13;100425.13;4929411;28;20027;-95
2024/02/19 06:51:37;;;;;;;;;;;;;;;;;;;;;
2024/02/19 06:54:13;;;;;;;50.83;26.85;;;;;;;5.40;69.52;100448.56;4952604;28;20090;-96
2024/02/19 06:56:48;;;;;;;46.15;25.25;;;;;;;5.40;69.10;100429.84;4931048;28;20023;-94
2024/02/19 06:59:20;;;;;;;43.90;25.63;;;;;;;5.65;68.66;100446.03;4935109;28;20027;-96
2024/02/19 07:01:46;;;;;;;40.58;22.48;;;;;;;5.56;68.99;100420.59;4937701;28;20404;-93
2024/02/19 07:04:28;;;;;;;43.70;23.67;;;;;;;5.62;69.09;100424.25;4931963;28;20042;-96
2024/02/19 07:06:55;;;;;;;;;;;;;;;5.86;68.85;100452.97;4930416;28;20033;-93
2024/02/19 07:09:20;;;;;;;30.98;18.27;;;;;;;5.78;68.65;100422.97;4950205;28;19930;-94
2024/02/19 07:11:46;;;;;;;33.78;21.17;;;;;;;5.80;68.25;100424.41;4930100;28;20053;-96
2024/02/19 07:14:11;;;;;;;43.13;23.60;;;;;;;5.88;68.33;100426.84;4928556;28;20030;-95
2024/02/19 07:16:40;;;;;;;46.72;23.75;;;;;;;6.04;68.04;100433.59;4943545;28;20026;-93
2024/02/19 07:26:59;;;;;;;37.47;20.98;;;;;;;6.26;67.60;100407.34;4979719;28;20039;-95
2024/02/19 07:29:25;;;;;;;43.50;23.90;;;;;;;6.29;67.87;100422.19;4936248;28;20118;-96
2024/02/19 07:31:54;;;;;;;45.33;24.90;;;;;;;6.29;68.16;100411.47;4938946;28;20031;-96
2024/02/19 07:34:29;;;;;;;50.22;24.30;;;;;;;6.38;67.33;100422.72;4939754;28;20046;-96
2024/02/19 07:36:54;;;;;;;44.15;24.52;;;;;;;6.39;66.99;100416.34;4933014;28;20098;-96
2024/02/19 07:39:20;;;;;;;52.65;26.15;;;;;;;6.32;66.90;100407.53;4949841;28;20098;-96
2024/02/19 07:41:46;;;;;;;53.88;28.42;;;;;;;6.34;67.19;100413.50;4931113;28;20034;-94
2024/02/19 07:44:12;;;;;;;45.10;26.77;;;;;;;6.51;67.49;100433.34;4933130;28;20125;-94
2024/02/19 07:46:40;;;;;;;40.83;26.10;;;;;;;6.53;67.83;100428.59;4963143;28;20053;-96
2024/02/19 07:49:09;;;;;;;45.60;25.10;;;;;;;6.72;67.86;100437.53;4950438;28;20023;-95
2024/02/19 07:51:38;;;;;;;35.85;21.70;;;;;;;6.71;67.51;100413.69;4950364;28;20023;-95
2024/02/19 07:54:03;;;;;;;49.90;24.13;;;;;;;6.86;67.92;100440.94;4937329;28;20027;-95
2024/02/19 07:56:32;;;;;;;51.85;24.63;;;;;;;6.85;68.05;100423.25;4956173;28;20106;-96
2024/02/19 07:59:50;;;;;;;53.10;26.85;;;;;;;7.06;67.61;100440.78;4966717;28;20050;-96
2024/02/19 08:03:11;;;;;;;41.58;24.40;;;;;;;7.11;67.53;100442.81;4908678;29;20036;-96
2024/02/19 08:08:12;;;;;;;54.25;25.50;;;;;;;7.07;67.13;100408.41;5087871;23;20047;-94
2024/02/19 08:14:50;;;;;;;;;;;;;;;;;;;;;
2024/02/19 08:20:52;;;;;;;54.63;27.63;;;;;;;7.12;67.95;100425.69;4912858;29;20417;-95
2024/02/19 08:26:49;;;;;;;69.35;32.38;;;;;;;7.49;66.83;100440.81;5053790;23;20052;-96
2024/02/19 08:29:15;;;;;;;56.78;28.55;;;;;;;7.35;66.39;100428.56;4942428;29;20047;-96
2024/02/19 08:31:41;;;;;;;54.78;27.77;;;;;;;7.36;66.35;100432.88;4907786;29;20108;-96
2024/02/19 08:34:12;;;;;;;47.80;28.52;;;;;;;7.24;66.57;100416.72;4908524;29;20047;-96
2024/02/19 08:43:46;;;;;;;55.25;29.75;;;;;;;7.55;67.11;100443.63;4913926;29;20047;-96
2024/02/19 08:46:45;;;;;;;62.80;30.20;;;;;;;7.54;67.09;100432.09;4918888;29;20045;-96
2024/02/19 09:00:35;;;;;;;59.53;32.78;;;;;;;7.78;66.76;100422.34;5296047;23;20115;-96
2024/02/19 09:06:00;;;;;;;55.37;28.00;;;;;;;7.79;66.34;100399.84;5054912;23;20062;-96
2024/02/19 09:08:56;;;;;;;71.28;39.25;;;;;;;7.84;65.86;100402.69;5005541;23;20050;-96
2024/02/19 10:06:39;;;;;;;39.38;19.90;;;;;;;8.89;62.87;100405.97;4972458;28;20518;-96
2024/02/19 10:09:08;;;;;;;52.35;26.70;;;;;;;8.61;63.60;100391.34;4935260;28;20043;-96
2024/02/19 10:11:34;;;;;;;50.33;26.17;;;;;;;8.54;63.65;100377.19;4931639;28;20433;-96
2024/02/19 10:14:03;;;;;;;55.20;26.40;;;;;;;8.69;63.34;100374.06;4948186;28;20035;-95
2024/02/19 10:16:29;;;;;;;48.88;21.33;;;;;;;8.77;63.19;100376.41;4951740;28;20027;-96
2024/02/19 10:19:07;;;;;;;41.22;20.45;;;;;;;8.92;62.54;100378.63;4970839;28;20023;-96
2024/02/19 10:21:42;;;;;;;51.38;25.85;;;;;;;8.72;63.28;100376.31;4934080;28;20026;-96
2024/02/19 10:24:08;;;;;;;65.85;30.70;;;;;;;8.77;63.54;100371.03;4969703;28;20101;-96
2024/02/19 10:44:53;;;;;;;50.45;25.00;;;;;;;8.81;63.17;100353.41;4928521;28;20546;-92
2024/02/19 10:47:24;;;;;;;44.85;24.35;;;;;;;8.81;63.21;100341.88;4932088;28;20037;-94
2024/02/19 10:49:57;;;;;;;44.30;24.73;;;;;;;8.76;63.24;100349.78;4939949;29;20086;-94
2024/02/19 10:52:25;;;;;;;44.28;23.83;;;;;;;8.99;63.38;100357.06;4926920;28;20350;-95
2024/02/19 10:54:56;;;;;;;44.83;24.33;;;;;;;9.16;62.90;100349.91;4945413;28;20433;-95
2024/02/19 10:57:47;;;;;;;42.55;24.02;;;;;;;9.21;62.26;100336.59;4935321;28;20556;-96
2024/02/19 11:00:16;;;;;;;43.72;23.60;;;;;;;9.25;61.83;100339.63;4938700;28;20031;-94
2024/02/19 11:02:51;;;;;;;37.25;21.27;;;;;;;9.28;61.76;100341.84;4945797;28;20027;-95
2024/02/19 11:05:26;;;;;;;50.45;24.25;;;;;;;9.20;62.32;100353.78;4930705;28;20030;-95
2024/02/19 11:08:34;;;;;;;40.70;22.38;;;;;;;9.04;62.13;100323.06;4931105;28;20030;-96
2024/02/19 11:11:30;;;;;;;37.40;22.75;;;;;;;9.04;62.05;100312.31;4969277;28;20070;-96
2024/02/19 11:14:21;;;;;;;48.72;23.77;;;;;;;9.07;62.66;100322.59;4965889;28;20045;-94
2024/02/19 11:16:51;;;;;;;58.92;34.83;;;;;;;9.16;63.00;100314.19;4947790;28;20506;-96
2024/02/19 11:19:18;;;;;;;43.78;25.15;;;;;;;9.17;62.94;100323.88;4941555;28;20031;-94
2024/02/19 11:22:30;;;;;;;52.47;30.88;;;;;;;9.14;62.92;100317.09;4947438;28;20038;-95
2024/02/19 11:25:21;;;;;;;34.35;20.98;;;;;;;9.20;63.29;100332.28;4944546;29;20034;-96
2024/02/19 11:28:02;;;;;;;27.75;14.35;;;;;;;9.19;62.47;100308.31;4931237;28;20042;-95
2024/02/19 11:30:36;;;;;;;18.33;10.82;;;;;;;9.28;61.76;100312.28;4935461;28;20023;-96
2024/02/19 11:33:28;;;;;;;17.65;10.63;;;;;;;9.33;61.66;100306.19;4888621;29;20036;-95
2024/02/19 11:36:42;;;;;;;17.17;9.32;;;;;;;9.26;60.94;100290.22;4903380;29;20039;-96
2024/02/19 11:39:08;;;;;;;24.30;12.90;;;;;;;9.31;61.63;100287.63;4806879;29;20054;-95
2024/02/19 11:41:37;;;;;;;18.00;10.75;;;;;;;9.25;62.30;100284.00;4788271;29;20088;-96
2024/02/19 12:15:23;;;;;;;28.45;17.45;;;;;;;9.51;63.57;100263.03;4947748;28;20055;-95
2024/02/19 12:18:09;;;;;;;;;;;;;;;;;;;;;
2024/02/19 12:21:35;;;;;;;;;;;;;;;;;;;;;
2024/02/19 12:24:33;;;;;;;;;;;;;;;;;;;;;
2024/02/19 12:47:52;;;;;;;26.98;14.07;;;;;;;9.64;63.63;100257.34;5113946;23;20054;-96
2024/02/19 12:50:44;;;;;;;22.38;11.63;;;;;;;9.40;63.00;100232.44;5006569;28;20084;-96
2024/02/19 12:56:34;;;;;;;20.67;10.65;;;;;;;9.46;63.36;100236.88;4958965;28;20043;-96
2024/02/19 12:59:03;;;;;;;17.85;10.10;;;;;;;9.47;63.64;100230.44;4938708;28;20441;-94
2024/02/19 13:07:29;;;;;;;16.00;9.88;;;;;;;9.48;63.77;100234.75;5146188;23;20062;-95
2024/02/19 13:30:14;;;;;;;43.40;25.02;;;;;;;9.14;64.40;100198.06;1271169;23;21608;-90
2024/02/19 13:46:56;;;;;;;42.60;23.92;;;;;;;9.16;64.44;100186.03;4906567;29;20111;-94
2024/02/19 13:49:29;;;;;;;43.13;25.17;;;;;;;9.22;64.68;100200.38;4885799;29;20134;-95
2024/02/19 13:54:50;;;;;;;40.15;23.70;;;;;;;9.19;64.50;100177.47;5007393;23;20062;-96
2024/02/19 13:57:27;;;;;;;43.85;25.00;;;;;;;9.38;64.13;100196.09;4928763;28;20105;-95
2024/02/19 14:00:15;;;;;;;45.35;27.30;;;;;;;9.51;63.82;100212.75;4959665;28;20029;-96
2024/02/19 14:02:49;;;;;;;71.90;42.42;;;;;;;9.44;64.18;100195.13;4984855;28;20022;-95
2024/02/19 14:05:15;;;;;;;41.28;24.27;;;;;;;9.41;63.88;100185.69;4946887;28;20039;-95
2024/02/19 14:07:47;;;;;;;35.28;22.85;;;;;;;9.51;63.81;100204.69;4946008;28;20030;-96
2024/02/19 14:10:15;;;;;;;;;;;;;;;9.59;63.74;100208.06;4946245;28;20026;-96
2024/02/19 14:23:08;;;;;;;35.70;21.23;;;;;;;9.51;63.57;100175.13;4993679;28;20062;-96
2024/02/19 14:25:57;;;;;;;42.28;21.90;;;;;;;9.66;63.60;100195.28;4948476;28;20281;-96
2024/02/19 14:31:53;;;;;;;49.42;31.90;;;;;;;9.63;63.37;100195.75;4965109;28;20065;-96
2024/02/19 14:34:21;;;;;;;24.85;14.65;;;;;;;9.81;62.88;100210.84;4950099;28;20113;-93
2024/02/19 14:37:13;;;;;;;;;;;;;;;;;;;;;
2024/02/19 14:39:58;;;;;;;38.38;21.55;;;;;;;9.77;63.11;100202.44;4950003;28;20473;-96
2024/02/19 14:42:27;;;;;;;41.88;24.63;;;;;;;9.72;62.53;100194.31;4964202;28;20034;-96
2024/02/19 14:44:53;;;;;;;47.78;27.48;;;;;;;9.74;62.96;100189.50;4949894;28;20042;-96
2024/02/19 14:47:59;;;;;;;;;;;;;;;;;;;;;
2024/02/19 14:58:10;;;;;;;69.13;40.25;;;;;;;9.83;63.01;100195.28;4999913;28;20046;-95
2024/02/19 15:00:57;;;;;;;50.30;29.75;;;;;;;9.80;62.90;100185.03;4966790;28;20035;-96
2024/02/19 15:04:09;;;;;;;43.25;26.08;;;;;;;9.71;63.10;100169.31;4993693;28;20043;-96
2024/02/19 15:10:24;;;;;;;40.78;23.17;;;;;;;9.73;63.29;100179.78;4936882;28;20048;-96
2024/02/19 15:12:52;;;;;;;41.60;24.15;;;;;;;9.68;63.50;100175.16;4911379;29;20023;-95
2024/02/19 15:15:24;;;;;;;70.13;34.30;;;;;;;9.64;62.97;100176.69;4940580;28;20069;-96
2024/02/19 15:18:24;;;;;;;80.18;38.95;;;;;;;9.54;64.48;100178.38;4970441;28;20030;-96
2024/02/19 15:20:50;;;;;;;175.20;77.47;;;;;;;9.54;63.94;100179.19;4966879;28;20411;-95
2024/02/19 15:23:15;;;;;;;141.25;62.60;;;;;;;9.57;64.02;100189.47;4981550;28;20022;-96
2024/02/19 15:25:44;;;;;;;77.18;42.03;;;;;;;9.58;63.78;100177.66;4949760;28;20173;-94
2024/02/19 15:39:02;;;;;;;40.40;22.33;;;;;;;9.38;64.10;100178.13;4997884;28;20046;-96
2024/02/19 15:41:34;;;;;;;44.72;24.92;;;;;;;9.47;64.53;100206.22;4948011;28;20367;-96
2024/02/19 15:46:52;;;;;;;49.03;23.33;;;;;;;9.15;65.08;100172.81;4964562;28;20053;-95
2024/02/19 15:49:19;;;;;;;42.63;21.40;;;;;;;9.06;65.09;100169.69;4967097;28;20030;-96
2024/02/19 15:51:47;;;;;;;49.33;24.05;;;;;;;9.06;65.37;100180.44;4967501;28;20158;-93
2024/02/19 15:54:23;;;;;;;39.97;24.10;;;;;;;9.17;65.44;100202.94;4946770;28;20045;-95
2024/02/19 15:57:06;;;;;;;49.80;28.75;;;;;;;9.07;65.47;100188.28;4953526;28;20022;-96
2024/02/19 15:59:31;;;;;;;49.95;27.35;;;;;;;9.01;65.60;100180.34;4977765;28;20030;-96
2024/02/19 16:01:57;;;;;;;46.25;26.67;;;;;;;9.01;65.79;100181.16;4951407;28;20618;-92
2024/02/19 16:04:24;;;;;;;52.20;26.33;;;;;;;9.00;66.00;100190.25;4969406;28;20400;-95
2024/02/19 16:06:53;;;;;;;42.90;26.15;;;;;;;9.08;66.10;100197.94;4961498;28;20018;-96
2024/02/19 16:09:28;;;;;;;51.80;27.45;;;;;;;8.87;65.85;100177.13;4949374;28;20559;-96
2024/02/19 16:11:54;;;;;;;45.08;27.58;;;;;;;8.90;65.87;100176.63;4905343;29;20083;-96
2024/02/19 16:14:19;;;;;;;55.72;28.05;;;;;;;8.83;66.02;100166.03;4893996;29;20036;-96
2024/02/19 16:16:45;;;;;;;46.30;26.67;;;;;;;9.01;65.65;100196.47;4871511;29;20630;-95
2024/02/19 16:19:11;;;;;;;50.45;27.35;;;;;;;9.02;65.34;100206.97;4887968;29;20056;-96
2024/02/19 16:21:43;;;;;;;58.13;30.80;;;;;;;8.89;65.46;100191.13;4874288;29;20040;-96
2024/02/19 16:24:10;;;;;;;63.85;37.28;;;;;;;8.76;65.81;100175.25;4855621;29;20133;-93
2024/02/19 16:26:39;;;;;;;61.78;38.75;;;;;;;8.75;65.80;100190.56;4864341;29;20041;-94
2024/02/19 16:29:04;;;;;;;64.32;39.00;;;;;;;8.76;65.70;100196.72;4867639;29;20049;-93
2024/02/19 16:31:59;;;;;;;72.57;42.83;;;;;;;8.65;65.94;100184.97;4881909;29;20098;-96
2024/02/19 16:34:27;;;;;;;69.90;43.10;;;;;;;8.69;65.98;100202.25;4899385;29;20047;-95
2024/02/19 16:37:10;;;;;;;82.68;51.50;;;;;;;8.63;65.76;100187.06;4912476;29;20062;-95
2024/02/19 16:39:38;;;;;;;72.25;42.03;;;;;;;8.68;65.97;100197.94;4924523;29;20060;-96
2024/02/19 16:42:08;;;;;;;71.20;43.65;;;;;;;8.66;66.09;100198.16;4931592;28;20066;-95
2024/02/19 16:44:34;;;;;;;62.97;37.85;;;;;;;8.52;65.92;100186.03;4933277;28;20031;-96
2024/02/19 16:47:00;;;;;;;62.65;35.83;;;;;;;8.50;66.52;100188.94;4933910;28;20073;-96
2024/02/19 16:49:29;;;;;;;56.67;36.90;;;;;;;8.41;66.29;100195.72;4947863;28;20050;-96
2024/02/19 16:51:58;;;;;;;59.95;36.45;;;;;;;8.43;67.01;100207.03;4949275;28;20090;-94
2024/02/19 16:54:28;;;;;;;56.83;35.38;;;;;;;8.30;67.12;100199.22;4949223;28;20023;-96
2024/02/19 16:57:08;;;;;;;;;;;;;;;;;;;;;
2024/02/19 16:59:37;;;;;;;60.60;32.88;;;;;;;8.14;67.26;100206.06;5005617;28;20089;-96
2024/02/19 17:02:03;;;;;;;57.75;34.28;;;;;;;8.04;67.65;100203.13;4971699;28;20026;-94
2024/02/19 17:04:28;;;;;;;51.22;32.38;;;;;;;8.00;67.95;100202.78;4952413;28;20122;-96
2024/02/19 17:06:54;;;;;;;51.45;32.63;;;;;;;8.02;68.01;100213.28;4931856;28;20023;-95
2024/02/19 17:09:20;;;;;;;57.00;34.72;;;;;;;7.94;68.10;100202.88;4931385;28;20027;-95
2024/02/19 17:11:52;;;;;;;53.15;34.75;;;;;;;7.87;68.13;100203.81;4946575;28;20034;-95
2024/02/19 17:14:17;;;;;;;;;;;;;;;7.96;68.14;100225.75;4933583;28;20097;-96
2024/02/19 17:16:49;;;;;;;60.05;36.10;;;;;;;7.79;68.49;100209.50;4948562;28;19910;-96
2024/02/19 17:19:15;;;;;;;49.05;30.83;;;;;;;7.73;68.18;100213.09;4949030;28;20058;-96
2024/02/19 17:21:43;;;;;;;58.78;31.35;;;;;;;7.69;68.56;100212.72;4949077;28;20098;-96
2024/02/19 17:24:11;;;;;;;62.42;32.45;;;;;;;7.56;68.69;100191.50;4934126;28;20030;-95
2024/02/19 17:26:38;;;;;;;49.53;30.38;;;;;;;7.51;69.01;100204.75;4933444;28;20023;-96
2024/02/19 17:29:07;;;;;;;54.22;31.77;;;;;;;7.44;69.61;100215.56;4949025;28;20097;-96
2024/02/19 17:31:43;;;;;;;57.63;34.67;;;;;;;7.31;69.55;100201.53;4938247;28;20026;-96
2024/02/19 17:34:11;;;;;;;63.58;34.78;;;;;;;7.37;69.77;100222.88;4935539;28;20019;-96
2024/02/19 17:36:37;;;;;;;61.17;33.55;;;;;;;7.13;70.40;100194.34;4948658;28;20066;-96
2024/02/19 17:39:06;;;;;;;56.05;31.52;;;;;;;7.19;70.30;100213.00;4948304;28;20051;-96
2024/02/19 17:41:37;;;;;;;55.72;33.25;;;;;;;7.11;70.21;100207.94;4949359;28;20065;-96
2024/02/19 17:44:09;;;;;;;51.60;30.98;;;;;;;7.09;70.02;100205.50;4942831;28;20034;-96
2024/02/19 17:46:35;;;;;;;50.60;30.52;;;;;;;7.06;70.37;100211.31;4951986;28;20099;-96
2024/02/19 17:49:08;;;;;;;51.97;30.17;;;;;;;7.05;70.46;100208.84;4949918;28;20598;-96
2024/02/19 17:51:33;;;;;;;51.60;29.58;;;;;;;6.97;70.28;100206.47;4985713;28;20034;-96
2024/02/19 17:53:59;;;;;;;60.80;30.20;;;;;;;6.85;70.60;100206.41;4950517;28;20046;-96
2024/02/19 17:56:40;;;;;;;;;;;;;;;;;;;;;
2024/02/19 18:02:07;;;;;;;51.80;29.30;;;;;;;6.71;71.14;100197.72;5485536;23;20050;-96
2024/02/19 18:04:35;;;;;;;46.38;27.45;;;;;;;6.64;70.34;100188.91;5001535;28;20049;-96
2024/02/19 18:07:01;;;;;;;49.08;28.10;;;;;;;6.55;70.67;100193.75;4985759;28;20030;-96
2024/02/19 18:09:30;;;;;;;45.95;27.13;;;;;;;6.48;70.85;100191.16;4983714;28;20037;-95
2024/02/19 18:12:18;;;;;;;41.17;25.52;;;;;;;6.66;71.24;100225.13;5003577;28;20537;-96
2024/02/19 18:18:33;;;;;;;54.85;27.83;;;;;;;6.62;71.96;100225.78;4997550;28;20065;-95
2024/02/19 18:21:22;;;;;;;40.83;25.30;;;;;;;6.51;72.22;100224.66;4983362;28;20030;-96
2024/02/19 18:24:08;;;;;;;44.90;25.33;;;;;;;6.32;72.45;100209.63;5006896;28;20026;-96
2024/02/19 18:43:43;;;;;;;46.75;28.90;;;;;;;6.10;72.59;100202.00;4867363;28;2819926;-96
2024/02/19 18:46:19;;;;;;;46.40;28.20;;;;;;;6.12;72.37;100209.78;4934626;29;20035;-96
2024/02/19 18:48:52;;;;;;;44.85;28.63;;;;;;;6.04;72.42;100200.19;4919934;29;20089;-96